Aviation Digital Data Service (ADDS)

Output produced by METARs form (1838 UTC 14 November 2019)
found at http://aviationweather.gov/metar/data/
 
METAR text: KUAO 141753Z 00000KT 10SM CLR 08/06 A3004 RMK AO2 SLP172 T00830061 10083 20044 58001
Conditions at: KUAO (AURORA , OR, US) observed 1753 UTC 14 November 2019
Temperature: 8.3°C (47°F)
Dewpoint: 6.1°C (43°F) [RH = 86%]
Pressure (altimeter): 30.04 inches Hg (1017.4 mb)
[Sea-level pressure: 1017.2 mb]
Winds: calm
Visibility: 10 or more miles (16+ km)
Ceiling: at least 12,000 feet AGL
Clouds: sky clear below 12,000 feet AGL
Weather: no significant weather observed at this time

METAR text: KUAO 141721Z 00000KT 5SM BR SCT002 07/06 A3005 RMK AO2 T00720061
Conditions at: KUAO (AURORA , OR, US) observed 1721 UTC 14 November 2019
Temperature: 7.2°C (45°F)
Dewpoint: 6.1°C (43°F) [RH = 93%]
Pressure (altimeter): 30.05 inches Hg (1017.7 mb)
Winds: calm
Visibility: 5 miles ( 8 km)
Ceiling: at least 12,000 feet AGL
Clouds: scattered clouds at 200 feet AGL
Weather: BR  (mist)

METAR text: KUAO 141712Z 00000KT 3SM BR BKN002 07/06 A3005 RMK AO2 T00720061
Conditions at: KUAO (AURORA , OR, US) observed 1712 UTC 14 November 2019
Temperature: 7.2°C (45°F)
Dewpoint: 6.1°C (43°F) [RH = 93%]
Pressure (altimeter): 30.05 inches Hg (1017.7 mb)
Winds: calm
Visibility: 3 miles ( 5 km)
Ceiling: 200 feet AGL
Clouds: broken clouds at 200 feet AGL
Weather: BR  (mist)

METAR text: KUAO 141658Z 00000KT 1 1/2SM BR OVC002 07/06 A3005 RMK AO2 T00670056
Conditions at: KUAO (AURORA , OR, US) observed 1658 UTC 14 November 2019
Temperature: 6.7°C (44°F)
Dewpoint: 5.6°C (42°F) [RH = 93%]
Pressure (altimeter): 30.05 inches Hg (1017.7 mb)
Winds: calm
Visibility: 1.50 miles (2.41 km)
Ceiling: 200 feet AGL
Clouds: overcast cloud deck at 200 feet AGL
Weather: BR  (mist)

METAR text: KUAO 141653Z 00000KT 4SM BR BKN002 07/05 A3005 RMK AO2 SLP175 T00670050
Conditions at: KUAO (AURORA , OR, US) observed 1653 UTC 14 November 2019
Temperature: 6.7°C (44°F)
Dewpoint: 5.0°C (41°F) [RH = 89%]
Pressure (altimeter): 30.05 inches Hg (1017.7 mb)
[Sea-level pressure: 1017.5 mb]
Winds: calm
Visibility: 4 miles ( 6 km)
Ceiling: 200 feet AGL
Clouds: broken clouds at 200 feet AGL
Weather: BR  (mist)

Forecast for: KUAO (AURORA , OR, US)
Text: KUAO 141729Z 1418/1518 VRB03KT 5SM BR SCT002
Forecast period: 1800 to 2000 UTC 14 November 2019
Forecast type: FROM: standard forecast or significant change
Winds: variable direction winds at 3 MPH (3 knots; 1.5 m/s)
Visibility: 5 miles (8 km)
Ceiling: at least 12,000 feet AGL
Clouds: scattered clouds at 200 feet AGL
Weather: BR  (mist)
Text: FM142000 VRB04KT P6SM BKN120
Forecast period: 2000 UTC 14 November 2019 to 0800 UTC 15 November 2019
Forecast type: FROM: standard forecast or significant change
Winds: variable direction winds at 5 MPH (4 knots; 2.1 m/s)
Visibility: 6 or more miles 10+ km)
Ceiling: 12000 feet AGL
Clouds: broken clouds at 12000 feet AGL
Weather: no significant weather forecast for this period
Text: FM150800 15004KT P6SM -RA SCT025 OVC050
Forecast period: 0800 to 1100 UTC 15 November 2019
Forecast type: FROM: standard forecast or significant change
Winds: from the SSE (150 degrees) at 5 MPH (4 knots; 2.1 m/s)
Visibility: 6 or more miles 10+ km)
Ceiling: 5000 feet AGL
Clouds: scattered clouds at 2500 feet AGL
overcast cloud deck at 5000 feet AGL
Weather: -RA  (light rain)
Text: FM151100 19003KT 4SM -RA BR OVC025
Forecast period: 1100 to 1500 UTC 15 November 2019
Forecast type: FROM: standard forecast or significant change
Winds: from the S (190 degrees) at 3 MPH (3 knots; 1.5 m/s)
Visibility: 4 miles (6 km)
Ceiling: 2500 feet AGL
Clouds: overcast cloud deck at 2500 feet AGL
Weather: -RA BR  (light rain, mist)
Text: FM151500 20005KT 4SM -RA BR OVC007
Forecast period: 1500 to 1800 UTC 15 November 2019
Forecast type: FROM: standard forecast or significant change
Winds: from the SSW (200 degrees) at 6 MPH (5 knots; 2.6 m/s)
Visibility: 4 miles (6 km)
Ceiling: 700 feet AGL
Clouds: overcast cloud deck at 700 feet AGL
Weather: -RA BR  (light rain, mist)